sensor_id;sensor_type;location;lat;lon;timestamp;P1;durP1;ratioP1;P2;durP2;ratioP2
64252;SDS011;50592;52.958;-7.470;2022-08-19T00:00:27;20.33;;;3.60;;
64252;SDS011;50592;52.958;-7.470;2022-08-19T00:02:52;26.13;;;3.50;;
64252;SDS011;50592;52.958;-7.470;2022-08-19T00:05:19;18.67;;;3.42;;
64252;SDS011;50592;52.958;-7.470;2022-08-19T00:07:47;25.88;;;4.40;;
64252;SDS011;50592;52.958;-7.470;2022-08-19T00:10:14;19.92;;;3.00;;
64252;SDS011;50592;52.958;-7.470;2022-08-19T00:12:42;24.73;;;3.63;;
64252;SDS011;50592;52.958;-7.470;2022-08-19T00:15:09;23.50;;;4.13;;
64252;SDS011;50592;52.958;-7.470;2022-08-19T00:17:41;19.38;;;3.00;;
64252;SDS011;50592;52.958;-7.470;2022-08-19T00:20:08;26.92;;;4.32;;
64252;SDS011;50592;52.958;-7.470;2022-08-19T00:22:36;20.20;;;3.50;;
64252;SDS011;50592;52.958;-7.470;2022-08-19T00:25:03;20.02;;;3.70;;
64252;SDS011;50592;52.958;-7.470;2022-08-19T00:27:30;25.90;;;3.55;;
64252;SDS011;50592;52.958;-7.470;2022-08-19T00:29:55;18.17;;;3.42;;
64252;SDS011;50592;52.958;-7.470;2022-08-19T00:32:21;29.02;;;4.28;;
64252;SDS011;50592;52.958;-7.470;2022-08-19T00:34:47;25.25;;;3.75;;
64252;SDS011;50592;52.958;-7.470;2022-08-19T00:37:13;22.33;;;3.67;;
64252;SDS011;50592;52.958;-7.470;2022-08-19T00:39:38;23.40;;;4.40;;
64252;SDS011;50592;52.958;-7.470;2022-08-19T00:42:04;24.00;;;4.35;;
64252;SDS011;50592;52.958;-7.470;2022-08-19T00:44:31;18.60;;;3.03;;
64252;SDS011;50592;52.958;-7.470;2022-08-19T00:46:58;26.90;;;4.00;;
64252;SDS011;50592;52.958;-7.470;2022-08-19T00:52:09;26.40;;;3.22;;
64252;SDS011;50592;52.958;-7.470;2022-08-19T00:54:39;26.63;;;4.13;;
64252;SDS011;50592;52.958;-7.470;2022-08-19T00:57:08;20.70;;;3.25;;
64252;SDS011;50592;52.958;-7.470;2022-08-19T00:59:37;21.38;;;3.15;;
64252;SDS011;50592;52.958;-7.470;2022-08-19T01:02:05;20.02;;;3.17;;
64252;SDS011;50592;52.958;-7.470;2022-08-19T01:04:32;14.93;;;3.13;;
64252;SDS011;50592;52.958;-7.470;2022-08-19T01:06:58;20.40;;;3.78;;
64252;SDS011;50592;52.958;-7.470;2022-08-19T01:09:24;19.38;;;3.55;;
64252;SDS011;50592;52.958;-7.470;2022-08-19T01:11:50;22.13;;;3.10;;
64252;SDS011;50592;52.958;-7.470;2022-08-19T01:14:17;23.25;;;4.05;;
64252;SDS011;50592;52.958;-7.470;2022-08-19T01:16:44;25.63;;;4.30;;
64252;SDS011;50592;52.958;-7.470;2022-08-19T01:19:24;30.40;;;4.13;;
64252;SDS011;50592;52.958;-7.470;2022-08-19T01:21:59;19.38;;;3.63;;
64252;SDS011;50592;52.958;-7.470;2022-08-19T01:24:28;24.17;;;3.63;;
64252;SDS011;50592;52.958;-7.470;2022-08-19T01:26:56;16.90;;;3.22;;
64252;SDS011;50592;52.958;-7.470;2022-08-19T01:29:21;13.35;;;2.83;;
64252;SDS011;50592;52.958;-7.470;2022-08-19T01:31:47;19.00;;;3.63;;
64252;SDS011;50592;52.958;-7.470;2022-08-19T01:34:14;15.45;;;2.58;;
64252;SDS011;50592;52.958;-7.470;2022-08-19T01:36:41;19.25;;;3.15;;
64252;SDS011;50592;52.958;-7.470;2022-08-19T01:39:23;19.38;;;3.35;;
64252;SDS011;50592;52.958;-7.470;2022-08-19T01:41:50;19.55;;;4.50;;
64252;SDS011;50592;52.958;-7.470;2022-08-19T01:44:20;13.18;;;1.92;;
64252;SDS011;50592;52.958;-7.470;2022-08-19T01:46:49;14.43;;;3.60;;
64252;SDS011;50592;52.958;-7.470;2022-08-19T01:49:17;14.45;;;3.55;;
64252;SDS011;50592;52.958;-7.470;2022-08-19T01:51:45;19.27;;;2.35;;
64252;SDS011;50592;52.958;-7.470;2022-08-19T01:54:11;13.60;;;1.73;;
64252;SDS011;50592;52.958;-7.470;2022-08-19T01:56:40;13.65;;;2.88;;
64252;SDS011;50592;52.958;-7.470;2022-08-19T01:59:08;16.30;;;3.35;;
64252;SDS011;50592;52.958;-7.470;2022-08-19T02:01:37;16.85;;;2.85;;
64252;SDS011;50592;52.958;-7.470;2022-08-19T02:04:03;15.43;;;2.47;;
64252;SDS011;50592;52.958;-7.470;2022-08-19T02:06:30;17.85;;;3.10;;
64252;SDS011;50592;52.958;-7.470;2022-08-19T02:08:56;14.60;;;3.13;;
64252;SDS011;50592;52.958;-7.470;2022-08-19T02:11:24;14.82;;;2.03;;
64252;SDS011;50592;52.958;-7.470;2022-08-19T02:13:52;24.00;;;2.95;;
64252;SDS011;50592;52.958;-7.470;2022-08-19T02:16:19;10.98;;;2.15;;
64252;SDS011;50592;52.958;-7.470;2022-08-19T02:18:46;16.80;;;2.45;;
64252;SDS011;50592;52.958;-7.470;2022-08-19T02:21:14;19.08;;;2.50;;
64252;SDS011;50592;52.958;-7.470;2022-08-19T02:23:41;21.73;;;3.33;;
64252;SDS011;50592;52.958;-7.470;2022-08-19T02:26:07;13.00;;;2.38;;
64252;SDS011;50592;52.958;-7.470;2022-08-19T02:28:33;12.40;;;3.05;;
64252;SDS011;50592;52.958;-7.470;2022-08-19T02:30:59;14.52;;;2.10;;
64252;SDS011;50592;52.958;-7.470;2022-08-19T02:33:27;16.58;;;2.47;;
64252;SDS011;50592;52.958;-7.470;2022-08-19T02:35:54;16.65;;;4.22;;
64252;SDS011;50592;52.958;-7.470;2022-08-19T02:38:20;12.68;;;2.45;;
64252;SDS011;50592;52.958;-7.470;2022-08-19T02:40:59;12.20;;;2.40;;
64252;SDS011;50592;52.958;-7.470;2022-08-19T02:43:31;13.10;;;2.53;;
64252;SDS011;50592;52.958;-7.470;2022-08-19T02:45:57;13.80;;;2.88;;
64252;SDS011;50592;52.958;-7.470;2022-08-19T02:48:24;13.02;;;2.25;;
64252;SDS011;50592;52.958;-7.470;2022-08-19T02:50:51;11.80;;;2.83;;
64252;SDS011;50592;52.958;-7.470;2022-08-19T02:53:24;16.80;;;3.00;;
64252;SDS011;50592;52.958;-7.470;2022-08-19T02:55:52;13.40;;;2.30;;
64252;SDS011;50592;52.958;-7.470;2022-08-19T02:58:18;13.10;;;2.15;;
64252;SDS011;50592;52.958;-7.470;2022-08-19T03:00:50;14.35;;;2.72;;
64252;SDS011;50592;52.958;-7.470;2022-08-19T03:03:18;15.73;;;3.13;;
64252;SDS011;50592;52.958;-7.470;2022-08-19T03:05:44;15.88;;;2.85;;
64252;SDS011;50592;52.958;-7.470;2022-08-19T03:08:11;22.55;;;2.80;;
64252;SDS011;50592;52.958;-7.470;2022-08-19T03:10:42;12.60;;;1.83;;
64252;SDS011;50592;52.958;-7.470;2022-08-19T03:13:10;17.90;;;2.53;;
64252;SDS011;50592;52.958;-7.470;2022-08-19T03:15:45;23.20;;;4.05;;
64252;SDS011;50592;52.958;-7.470;2022-08-19T03:18:12;15.80;;;2.42;;
64252;SDS011;50592;52.958;-7.470;2022-08-19T03:20:43;20.45;;;2.70;;
64252;SDS011;50592;52.958;-7.470;2022-08-19T03:23:09;17.73;;;3.25;;
64252;SDS011;50592;52.958;-7.470;2022-08-19T03:25:38;18.25;;;3.13;;
64252;SDS011;50592;52.958;-7.470;2022-08-19T03:28:07;15.73;;;2.45;;
64252;SDS011;50592;52.958;-7.470;2022-08-19T03:30:33;17.05;;;2.47;;
64252;SDS011;50592;52.958;-7.470;2022-08-19T03:32:59;16.33;;;2.72;;
64252;SDS011;50592;52.958;-7.470;2022-08-19T03:35:24;13.18;;;1.83;;
64252;SDS011;50592;52.958;-7.470;2022-08-19T03:37:51;12.13;;;2.03;;
64252;SDS011;50592;52.958;-7.470;2022-08-19T03:40:18;9.23;;;1.85;;
64252;SDS011;50592;52.958;-7.470;2022-08-19T03:42:44;17.38;;;2.85;;
64252;SDS011;50592;52.958;-7.470;2022-08-19T03:45:11;13.55;;;2.15;;
64252;SDS011;50592;52.958;-7.470;2022-08-19T03:47:37;11.85;;;1.50;;
64252;SDS011;50592;52.958;-7.470;2022-08-19T03:50:03;12.25;;;2.10;;
64252;SDS011;50592;52.958;-7.470;2022-08-19T03:52:30;13.93;;;2.45;;
64252;SDS011;50592;52.958;-7.470;2022-08-19T03:54:55;8.65;;;1.58;;
64252;SDS011;50592;52.958;-7.470;2022-08-19T03:57:21;10.60;;;1.67;;
64252;SDS011;50592;52.958;-7.470;2022-08-19T03:59:47;15.32;;;2.42;;
64252;SDS011;50592;52.958;-7.470;2022-08-19T04:02:13;11.48;;;1.70;;
64252;SDS011;50592;52.958;-7.470;2022-08-19T04:04:40;16.42;;;2.00;;
64252;SDS011;50592;52.958;-7.470;2022-08-19T04:07:08;14.73;;;2.30;;
64252;SDS011;50592;52.958;-7.470;2022-08-19T04:09:35;12.00;;;1.92;;
64252;SDS011;50592;52.958;-7.470;2022-08-19T04:12:02;8.55;;;1.52;;
64252;SDS011;50592;52.958;-7.470;2022-08-19T04:14:31;10.80;;;1.85;;
64252;SDS011;50592;52.958;-7.470;2022-08-19T04:16:59;12.02;;;1.42;;
64252;SDS011;50592;52.958;-7.470;2022-08-19T04:19:25;9.27;;;1.77;;
64252;SDS011;50592;52.958;-7.470;2022-08-19T04:21:53;10.57;;;1.65;;
64252;SDS011;50592;52.958;-7.470;2022-08-19T04:24:20;7.80;;;1.40;;
64252;SDS011;50592;52.958;-7.470;2022-08-19T04:26:46;11.02;;;1.60;;
64252;SDS011;50592;52.958;-7.470;2022-08-19T04:29:14;14.40;;;2.15;;
64252;SDS011;50592;52.958;-7.470;2022-08-19T04:31:47;12.77;;;2.35;;
64252;SDS011;50592;52.958;-7.470;2022-08-19T04:34:16;11.05;;;2.10;;
64252;SDS011;50592;52.958;-7.470;2022-08-19T04:36:43;9.73;;;1.33;;
64252;SDS011;50592;52.958;-7.470;2022-08-19T04:39:12;8.63;;;1.38;;
64252;SDS011;50592;52.958;-7.470;2022-08-19T04:41:41;12.70;;;1.55;;
64252;SDS011;50592;52.958;-7.470;2022-08-19T04:44:26;14.00;;;1.85;;
64252;SDS011;50592;52.958;-7.470;2022-08-19T04:46:56;8.68;;;1.88;;
64252;SDS011;50592;52.958;-7.470;2022-08-19T04:49:22;9.70;;;1.88;;
64252;SDS011;50592;52.958;-7.470;2022-08-19T04:51:50;17.13;;;2.20;;
64252;SDS011;50592;52.958;-7.470;2022-08-19T04:54:19;9.82;;;1.75;;
64252;SDS011;50592;52.958;-7.470;2022-08-19T04:56:51;11.98;;;2.38;;
64252;SDS011;50592;52.958;-7.470;2022-08-19T04:59:18;9.75;;;1.63;;
64252;SDS011;50592;52.958;-7.470;2022-08-19T05:01:45;11.45;;;2.10;;
64252;SDS011;50592;52.958;-7.470;2022-08-19T05:04:14;9.80;;;1.52;;
64252;SDS011;50592;52.958;-7.470;2022-08-19T05:06:42;9.43;;;1.85;;
64252;SDS011;50592;52.958;-7.470;2022-08-19T05:09:08;9.13;;;1.75;;
64252;SDS011;50592;52.958;-7.470;2022-08-19T05:11:35;14.70;;;1.88;;
64252;SDS011;50592;52.958;-7.470;2022-08-19T05:14:04;11.73;;;1.45;;
64252;SDS011;50592;52.958;-7.470;2022-08-19T05:16:31;11.55;;;1.35;;
64252;SDS011;50592;52.958;-7.470;2022-08-19T05:18:57;10.43;;;1.30;;
64252;SDS011;50592;52.958;-7.470;2022-08-19T05:21:41;8.38;;;1.20;;
64252;SDS011;50592;52.958;-7.470;2022-08-19T05:24:26;9.25;;;1.92;;
64252;SDS011;50592;52.958;-7.470;2022-08-19T05:26:53;11.75;;;1.75;;
64252;SDS011;50592;52.958;-7.470;2022-08-19T05:29:22;8.65;;;1.20;;
64252;SDS011;50592;52.958;-7.470;2022-08-19T05:31:49;9.70;;;2.00;;
64252;SDS011;50592;52.958;-7.470;2022-08-19T05:34:16;10.02;;;1.27;;
64252;SDS011;50592;52.958;-7.470;2022-08-19T05:36:43;6.32;;;1.75;;
64252;SDS011;50592;52.958;-7.470;2022-08-19T05:39:11;11.40;;;1.45;;
64252;SDS011;50592;52.958;-7.470;2022-08-19T05:41:42;6.88;;;0.93;;
64252;SDS011;50592;52.958;-7.470;2022-08-19T05:44:09;15.13;;;1.77;;
64252;SDS011;50592;52.958;-7.470;2022-08-19T05:46:35;12.60;;;1.90;;
64252;SDS011;50592;52.958;-7.470;2022-08-19T05:49:06;10.35;;;1.60;;
64252;SDS011;50592;52.958;-7.470;2022-08-19T05:51:32;13.40;;;1.85;;
64252;SDS011;50592;52.958;-7.470;2022-08-19T05:54:00;8.40;;;1.40;;
64252;SDS011;50592;52.958;-7.470;2022-08-19T05:56:27;12.10;;;1.30;;
64252;SDS011;50592;52.958;-7.470;2022-08-19T05:58:52;8.40;;;1.30;;
64252;SDS011;50592;52.958;-7.470;2022-08-19T06:01:19;9.57;;;1.55;;
64252;SDS011;50592;52.958;-7.470;2022-08-19T06:03:45;17.20;;;2.67;;
64252;SDS011;50592;52.958;-7.470;2022-08-19T06:06:13;11.38;;;1.40;;
64252;SDS011;50592;52.958;-7.470;2022-08-19T06:08:41;9.43;;;1.40;;
64252;SDS011;50592;52.958;-7.470;2022-08-19T06:11:24;10.18;;;1.77;;
64252;SDS011;50592;52.958;-7.470;2022-08-19T06:13:59;10.60;;;1.30;;
64252;SDS011;50592;52.958;-7.470;2022-08-19T06:16:27;11.45;;;1.58;;
64252;SDS011;50592;52.958;-7.470;2022-08-19T06:18:57;8.60;;;1.58;;
64252;SDS011;50592;52.958;-7.470;2022-08-19T06:21:26;8.98;;;1.75;;
64252;SDS011;50592;52.958;-7.470;2022-08-19T06:23:54;9.98;;;1.52;;
64252;SDS011;50592;52.958;-7.470;2022-08-19T06:26:22;9.88;;;1.48;;
64252;SDS011;50592;52.958;-7.470;2022-08-19T06:28:49;10.45;;;1.50;;
64252;SDS011;50592;52.958;-7.470;2022-08-19T06:31:25;11.65;;;1.70;;
64252;SDS011;50592;52.958;-7.470;2022-08-19T06:33:56;10.00;;;2.38;;
64252;SDS011;50592;52.958;-7.470;2022-08-19T06:36:32;9.30;;;1.65;;
64252;SDS011;50592;52.958;-7.470;2022-08-19T06:39:05;9.68;;;1.63;;
64252;SDS011;50592;52.958;-7.470;2022-08-19T06:41:36;9.48;;;1.55;;
64252;SDS011;50592;52.958;-7.470;2022-08-19T06:44:04;9.65;;;1.70;;
64252;SDS011;50592;52.958;-7.470;2022-08-19T06:46:31;8.95;;;1.55;;
64252;SDS011;50592;52.958;-7.470;2022-08-19T06:48:57;10.10;;;1.50;;
64252;SDS011;50592;52.958;-7.470;2022-08-19T06:51:23;7.78;;;1.50;;
64252;SDS011;50592;52.958;-7.470;2022-08-19T06:53:50;8.52;;;1.08;;
64252;SDS011;50592;52.958;-7.470;2022-08-19T06:56:19;6.80;;;1.13;;
64252;SDS011;50592;52.958;-7.470;2022-08-19T06:58:47;14.20;;;1.75;;
64252;SDS011;50592;52.958;-7.470;2022-08-19T07:01:17;7.03;;;1.00;;
64252;SDS011;50592;52.958;-7.470;2022-08-19T07:03:42;9.10;;;1.40;;
64252;SDS011;50592;52.958;-7.470;2022-08-19T07:06:13;4.97;;;1.40;;
64252;SDS011;50592;52.958;-7.470;2022-08-19T07:08:43;3.25;;;0.68;;
64252;SDS011;50592;52.958;-7.470;2022-08-19T07:11:11;8.50;;;1.42;;
64252;SDS011;50592;52.958;-7.470;2022-08-19T07:13:38;7.97;;;1.63;;
64252;SDS011;50592;52.958;-7.470;2022-08-19T07:16:09;9.52;;;1.08;;
64252;SDS011;50592;52.958;-7.470;2022-08-19T07:18:37;8.27;;;1.30;;
64252;SDS011;50592;52.958;-7.470;2022-08-19T07:21:04;5.40;;;0.60;;
64252;SDS011;50592;52.958;-7.470;2022-08-19T07:23:32;5.63;;;1.00;;
64252;SDS011;50592;52.958;-7.470;2022-08-19T07:25:58;8.05;;;1.10;;
64252;SDS011;50592;52.958;-7.470;2022-08-19T07:28:30;7.30;;;1.30;;
64252;SDS011;50592;52.958;-7.470;2022-08-19T07:30:55;7.53;;;0.90;;
64252;SDS011;50592;52.958;-7.470;2022-08-19T07:33:21;4.22;;;0.82;;
64252;SDS011;50592;52.958;-7.470;2022-08-19T07:35:47;3.58;;;0.60;;
64252;SDS011;50592;52.958;-7.470;2022-08-19T07:38:14;8.70;;;1.70;;
64252;SDS011;50592;52.958;-7.470;2022-08-19T07:40:41;4.50;;;0.70;;
64252;SDS011;50592;52.958;-7.470;2022-08-19T07:43:08;6.65;;;0.77;;
64252;SDS011;50592;52.958;-7.470;2022-08-19T07:45:34;5.03;;;0.70;;
64252;SDS011;50592;52.958;-7.470;2022-08-19T07:48:00;4.38;;;0.50;;
64252;SDS011;50592;52.958;-7.470;2022-08-19T07:50:26;10.88;;;0.98;;
64252;SDS011;50592;52.958;-7.470;2022-08-19T07:52:52;7.60;;;0.90;;
64252;SDS011;50592;52.958;-7.470;2022-08-19T07:55:19;7.13;;;0.65;;
64252;SDS011;50592;52.958;-7.470;2022-08-19T07:57:51;6.13;;;1.02;;
64252;SDS011;50592;52.958;-7.470;2022-08-19T08:00:18;3.50;;;0.60;;
64252;SDS011;50592;52.958;-7.470;2022-08-19T08:02:44;5.50;;;0.82;;
64252;SDS011;50592;52.958;-7.470;2022-08-19T08:05:10;5.68;;;0.63;;
64252;SDS011;50592;52.958;-7.470;2022-08-19T08:07:54;6.88;;;1.70;;
64252;SDS011;50592;52.958;-7.470;2022-08-19T08:10:38;4.43;;;0.93;;
64252;SDS011;50592;52.958;-7.470;2022-08-19T08:13:05;8.07;;;1.33;;
64252;SDS011;50592;52.958;-7.470;2022-08-19T08:15:31;6.40;;;1.02;;
64252;SDS011;50592;52.958;-7.470;2022-08-19T08:17:57;8.40;;;1.38;;
64252;SDS011;50592;52.958;-7.470;2022-08-19T08:20:23;9.40;;;1.30;;
64252;SDS011;50592;52.958;-7.470;2022-08-19T08:22:49;7.20;;;1.10;;
64252;SDS011;50592;52.958;-7.470;2022-08-19T08:25:33;11.90;;;1.25;;
64252;SDS011;50592;52.958;-7.470;2022-08-19T08:28:00;7.47;;;1.45;;
64252;SDS011;50592;52.958;-7.470;2022-08-19T08:30:27;5.63;;;1.02;;
64252;SDS011;50592;52.958;-7.470;2022-08-19T08:32:55;7.22;;;1.10;;
64252;SDS011;50592;52.958;-7.470;2022-08-19T08:35:22;7.95;;;1.15;;
64252;SDS011;50592;52.958;-7.470;2022-08-19T08:37:49;10.98;;;1.20;;
64252;SDS011;50592;52.958;-7.470;2022-08-19T08:40:28;8.52;;;1.45;;
64252;SDS011;50592;52.958;-7.470;2022-08-19T08:46:04;7.55;;;1.50;;
64252;SDS011;50592;52.958;-7.470;2022-08-19T08:48:44;4.50;;;0.77;;
64252;SDS011;50592;52.958;-7.470;2022-08-19T08:51:19;6.53;;;1.58;;
64252;SDS011;50592;52.958;-7.470;2022-08-19T08:53:49;9.98;;;1.13;;
64252;SDS011;50592;52.958;-7.470;2022-08-19T08:56:17;8.80;;;1.50;;
64252;SDS011;50592;52.958;-7.470;2022-08-19T09:01:18;5.32;;;1.10;;
64252;SDS011;50592;52.958;-7.470;2022-08-19T09:03:45;6.20;;;0.88;;
64252;SDS011;50592;52.958;-7.470;2022-08-19T09:06:19;6.97;;;1.23;;
64252;SDS011;50592;52.958;-7.470;2022-08-19T09:11:15;11.95;;;1.13;;
64252;SDS011;50592;52.958;-7.470;2022-08-19T09:14:02;8.50;;;1.35;;
64252;SDS011;50592;52.958;-7.470;2022-08-19T09:16:39;11.35;;;1.48;;
64252;SDS011;50592;52.958;-7.470;2022-08-19T09:19:06;13.50;;;1.52;;
64252;SDS011;50592;52.958;-7.470;2022-08-19T09:21:33;12.73;;;1.80;;
64252;SDS011;50592;52.958;-7.470;2022-08-19T09:24:00;9.63;;;1.42;;
64252;SDS011;50592;52.958;-7.470;2022-08-19T09:26:27;9.23;;;2.22;;
64252;SDS011;50592;52.958;-7.470;2022-08-19T09:28:53;11.27;;;1.92;;
64252;SDS011;50592;52.958;-7.470;2022-08-19T09:31:21;8.38;;;1.70;;
64252;SDS011;50592;52.958;-7.470;2022-08-19T09:33:49;6.50;;;1.52;;
64252;SDS011;50592;52.958;-7.470;2022-08-19T09:36:16;14.93;;;1.70;;
64252;SDS011;50592;52.958;-7.470;2022-08-19T09:38:43;11.63;;;2.13;;
64252;SDS011;50592;52.958;-7.470;2022-08-19T09:41:12;11.43;;;1.77;;
64252;SDS011;50592;52.958;-7.470;2022-08-19T09:43:40;8.57;;;1.60;;
64252;SDS011;50592;52.958;-7.470;2022-08-19T09:46:07;9.35;;;1.63;;
64252;SDS011;50592;52.958;-7.470;2022-08-19T09:48:38;18.10;;;2.13;;
64252;SDS011;50592;52.958;-7.470;2022-08-19T09:51:07;12.45;;;2.53;;
64252;SDS011;50592;52.958;-7.470;2022-08-19T09:53:35;13.15;;;2.28;;
64252;SDS011;50592;52.958;-7.470;2022-08-19T09:56:03;13.50;;;2.10;;
64252;SDS011;50592;52.958;-7.470;2022-08-19T09:58:30;15.57;;;2.75;;
64252;SDS011;50592;52.958;-7.470;2022-08-19T10:00:57;10.98;;;2.22;;
64252;SDS011;50592;52.958;-7.470;2022-08-19T10:03:25;12.27;;;2.15;;
64252;SDS011;50592;52.958;-7.470;2022-08-19T10:05:52;15.63;;;2.17;;
64252;SDS011;50592;52.958;-7.470;2022-08-19T10:08:20;14.27;;;2.20;;
64252;SDS011;50592;52.958;-7.470;2022-08-19T10:10:49;11.30;;;2.15;;
64252;SDS011;50592;52.958;-7.470;2022-08-19T10:13:17;12.50;;;2.22;;
64252;SDS011;50592;52.958;-7.470;2022-08-19T10:15:47;12.80;;;2.30;;
64252;SDS011;50592;52.958;-7.470;2022-08-19T10:18:15;7.93;;;1.63;;
64252;SDS011;50592;52.958;-7.470;2022-08-19T10:20:48;7.85;;;1.60;;
64252;SDS011;50592;52.958;-7.470;2022-08-19T10:23:16;19.85;;;1.90;;
64252;SDS011;50592;52.958;-7.470;2022-08-19T10:25:42;11.88;;;1.65;;
64252;SDS011;50592;52.958;-7.470;2022-08-19T10:28:08;12.43;;;2.22;;
64252;SDS011;50592;52.958;-7.470;2022-08-19T10:30:40;8.93;;;1.52;;
64252;SDS011;50592;52.958;-7.470;2022-08-19T10:33:07;12.75;;;2.45;;
64252;SDS011;50592;52.958;-7.470;2022-08-19T10:35:33;8.45;;;1.52;;
64252;SDS011;50592;52.958;-7.470;2022-08-19T10:37:59;10.02;;;1.63;;
64252;SDS011;50592;52.958;-7.470;2022-08-19T10:40:26;9.32;;;2.15;;
64252;SDS011;50592;52.958;-7.470;2022-08-19T10:42:54;6.40;;;1.83;;
64252;SDS011;50592;52.958;-7.470;2022-08-19T10:45:21;11.90;;;2.05;;
64252;SDS011;50592;52.958;-7.470;2022-08-19T10:47:48;7.97;;;1.55;;
64252;SDS011;50592;52.958;-7.470;2022-08-19T10:50:14;8.05;;;1.85;;
64252;SDS011;50592;52.958;-7.470;2022-08-19T10:53:02;13.23;;;1.70;;
64252;SDS011;50592;52.958;-7.470;2022-08-19T10:55:30;8.82;;;1.77;;
64252;SDS011;50592;52.958;-7.470;2022-08-19T10:58:16;11.88;;;1.80;;
64252;SDS011;50592;52.958;-7.470;2022-08-19T11:00:52;5.13;;;1.42;;
64252;SDS011;50592;52.958;-7.470;2022-08-19T11:03:23;5.10;;;1.55;;
64252;SDS011;50592;52.958;-7.470;2022-08-19T11:06:03;8.82;;;1.75;;
64252;SDS011;50592;52.958;-7.470;2022-08-19T11:08:32;12.75;;;1.90;;
64252;SDS011;50592;52.958;-7.470;2022-08-19T11:11:00;9.15;;;2.15;;
64252;SDS011;50592;52.958;-7.470;2022-08-19T11:13:28;9.15;;;1.73;;
64252;SDS011;50592;52.958;-7.470;2022-08-19T11:16:06;9.43;;;1.75;;
64252;SDS011;50592;52.958;-7.470;2022-08-19T11:18:36;11.38;;;2.50;;
64252;SDS011;50592;52.958;-7.470;2022-08-19T11:21:15;10.82;;;2.25;;
64252;SDS011;50592;52.958;-7.470;2022-08-19T11:23:50;12.73;;;2.63;;
64252;SDS011;50592;52.958;-7.470;2022-08-19T11:26:19;9.75;;;2.22;;
64252;SDS011;50592;52.958;-7.470;2022-08-19T11:28:46;6.22;;;1.73;;
64252;SDS011;50592;52.958;-7.470;2022-08-19T11:31:13;9.65;;;1.98;;
64252;SDS011;50592;52.958;-7.470;2022-08-19T11:33:42;5.43;;;1.67;;
64252;SDS011;50592;52.958;-7.470;2022-08-19T11:36:08;5.13;;;1.60;;
64252;SDS011;50592;52.958;-7.470;2022-08-19T11:38:35;7.13;;;1.88;;
64252;SDS011;50592;52.958;-7.470;2022-08-19T11:41:02;7.22;;;2.30;;
64252;SDS011;50592;52.958;-7.470;2022-08-19T11:43:33;9.38;;;1.95;;
64252;SDS011;50592;52.958;-7.470;2022-08-19T11:46:02;14.18;;;2.13;;
64252;SDS011;50592;52.958;-7.470;2022-08-19T11:48:32;7.78;;;1.70;;
64252;SDS011;50592;52.958;-7.470;2022-08-19T11:51:02;5.13;;;1.13;;
64252;SDS011;50592;52.958;-7.470;2022-08-19T11:53:32;9.15;;;1.40;;
64252;SDS011;50592;52.958;-7.470;2022-08-19T11:55:59;7.22;;;1.88;;
64252;SDS011;50592;52.958;-7.470;2022-08-19T11:58:25;8.73;;;2.05;;
64252;SDS011;50592;52.958;-7.470;2022-08-19T12:00:51;5.85;;;1.02;;
64252;SDS011;50592;52.958;-7.470;2022-08-19T12:03:17;4.63;;;1.20;;
64252;SDS011;50592;52.958;-7.470;2022-08-19T12:05:44;7.60;;;1.50;;
64252;SDS011;50592;52.958;-7.470;2022-08-19T12:08:10;7.97;;;1.58;;
64252;SDS011;50592;52.958;-7.470;2022-08-19T12:10:38;8.30;;;1.85;;
64252;SDS011;50592;52.958;-7.470;2022-08-19T12:13:05;4.75;;;1.55;;
64252;SDS011;50592;52.958;-7.470;2022-08-19T12:15:38;8.18;;;1.30;;
64252;SDS011;50592;52.958;-7.470;2022-08-19T12:18:06;4.32;;;1.08;;
64252;SDS011;50592;52.958;-7.470;2022-08-19T12:20:34;7.15;;;1.48;;
64252;SDS011;50592;52.958;-7.470;2022-08-19T12:23:01;6.97;;;1.13;;
64252;SDS011;50592;52.958;-7.470;2022-08-19T12:25:27;5.43;;;1.20;;
64252;SDS011;50592;52.958;-7.470;2022-08-19T12:27:53;4.55;;;1.15;;
64252;SDS011;50592;52.958;-7.470;2022-08-19T12:30:20;5.85;;;1.30;;
64252;SDS011;50592;52.958;-7.470;2022-08-19T12:32:46;9.40;;;1.73;;
64252;SDS011;50592;52.958;-7.470;2022-08-19T12:35:11;10.57;;;1.52;;
64252;SDS011;50592;52.958;-7.470;2022-08-19T12:37:38;9.60;;;1.33;;
64252;SDS011;50592;52.958;-7.470;2022-08-19T12:40:06;7.82;;;1.73;;
64252;SDS011;50592;52.958;-7.470;2022-08-19T12:42:33;6.55;;;1.25;;
64252;SDS011;50592;52.958;-7.470;2022-08-19T12:45:00;11.57;;;1.80;;
64252;SDS011;50592;52.958;-7.470;2022-08-19T12:47:25;6.65;;;1.60;;
64252;SDS011;50592;52.958;-7.470;2022-08-19T12:49:52;10.90;;;2.15;;
64252;SDS011;50592;52.958;-7.470;2022-08-19T12:52:17;7.63;;;1.60;;
64252;SDS011;50592;52.958;-7.470;2022-08-19T12:54:46;7.88;;;1.65;;
64252;SDS011;50592;52.958;-7.470;2022-08-19T12:57:12;4.75;;;0.85;;
64252;SDS011;50592;52.958;-7.470;2022-08-19T12:59:38;8.68;;;1.00;;
64252;SDS011;50592;52.958;-7.470;2022-08-19T13:02:04;5.15;;;1.00;;
64252;SDS011;50592;52.958;-7.470;2022-08-19T13:04:31;5.13;;;0.85;;
64252;SDS011;50592;52.958;-7.470;2022-08-19T13:07:00;2.72;;;0.80;;
64252;SDS011;50592;52.958;-7.470;2022-08-19T13:09:26;5.22;;;1.25;;
64252;SDS011;50592;52.958;-7.470;2022-08-19T13:11:52;4.05;;;1.10;;
64252;SDS011;50592;52.958;-7.470;2022-08-19T13:14:17;5.97;;;1.10;;
64252;SDS011;50592;52.958;-7.470;2022-08-19T13:16:44;3.75;;;0.90;;
64252;SDS011;50592;52.958;-7.470;2022-08-19T13:19:09;8.77;;;1.10;;
64252;SDS011;50592;52.958;-7.470;2022-08-19T13:21:37;5.43;;;1.00;;
64252;SDS011;50592;52.958;-7.470;2022-08-19T13:24:03;3.88;;;0.90;;
64252;SDS011;50592;52.958;-7.470;2022-08-19T13:26:29;5.60;;;1.23;;
64252;SDS011;50592;52.958;-7.470;2022-08-19T13:28:54;10.52;;;0.80;;
64252;SDS011;50592;52.958;-7.470;2022-08-19T13:31:39;3.63;;;0.90;;
64252;SDS011;50592;52.958;-7.470;2022-08-19T13:34:32;4.65;;;1.08;;
64252;SDS011;50592;52.958;-7.470;2022-08-19T13:37:00;5.32;;;1.08;;
64252;SDS011;50592;52.958;-7.470;2022-08-19T13:39:31;5.53;;;1.10;;
64252;SDS011;50592;52.958;-7.470;2022-08-19T13:41:58;5.20;;;1.02;;
64252;SDS011;50592;52.958;-7.470;2022-08-19T13:44:26;8.48;;;1.70;;
64252;SDS011;50592;52.958;-7.470;2022-08-19T13:46:55;5.75;;;1.02;;
64252;SDS011;50592;52.958;-7.470;2022-08-19T13:49:27;4.20;;;1.08;;
64252;SDS011;50592;52.958;-7.470;2022-08-19T13:51:56;4.15;;;1.30;;
64252;SDS011;50592;52.958;-7.470;2022-08-19T13:54:22;4.20;;;1.20;;
64252;SDS011;50592;52.958;-7.470;2022-08-19T13:56:48;4.07;;;0.93;;
64252;SDS011;50592;52.958;-7.470;2022-08-19T13:59:13;3.95;;;1.20;;
64252;SDS011;50592;52.958;-7.470;2022-08-19T14:01:40;6.68;;;1.00;;
64252;SDS011;50592;52.958;-7.470;2022-08-19T14:04:06;4.30;;;0.70;;
64252;SDS011;50592;52.958;-7.470;2022-08-19T14:06:33;9.50;;;1.85;;
64252;SDS011;50592;52.958;-7.470;2022-08-19T14:08:59;2.65;;;0.70;;
64252;SDS011;50592;52.958;-7.470;2022-08-19T14:11:27;5.55;;;1.00;;
64252;SDS011;50592;52.958;-7.470;2022-08-19T14:13:53;4.47;;;0.80;;
64252;SDS011;50592;52.958;-7.470;2022-08-19T14:16:19;5.38;;;0.90;;
64252;SDS011;50592;52.958;-7.470;2022-08-19T14:18:46;4.82;;;1.00;;
64252;SDS011;50592;52.958;-7.470;2022-08-19T14:21:22;5.43;;;1.30;;
64252;SDS011;50592;52.958;-7.470;2022-08-19T14:23:50;7.57;;;1.38;;
64252;SDS011;50592;52.958;-7.470;2022-08-19T14:26:17;8.88;;;1.30;;
64252;SDS011;50592;52.958;-7.470;2022-08-19T14:28:44;6.70;;;1.30;;
64252;SDS011;50592;52.958;-7.470;2022-08-19T14:31:11;7.47;;;1.65;;
64252;SDS011;50592;52.958;-7.470;2022-08-19T14:33:41;7.03;;;1.50;;
64252;SDS011;50592;52.958;-7.470;2022-08-19T14:36:07;5.05;;;1.40;;
64252;SDS011;50592;52.958;-7.470;2022-08-19T14:38:33;9.35;;;1.23;;
64252;SDS011;50592;52.958;-7.470;2022-08-19T14:41:09;7.90;;;1.38;;
64252;SDS011;50592;52.958;-7.470;2022-08-19T14:43:39;7.63;;;1.65;;
64252;SDS011;50592;52.958;-7.470;2022-08-19T14:46:04;8.38;;;1.20;;